createdAt,value
2018-12-18T00:00:40.562Z,44.48
2018-12-18T00:01:42.052Z,45.23
2018-12-18T00:02:43.611Z,44.63
2018-12-18T00:03:45.110Z,45.70
2018-12-18T00:04:46.589Z,46.45
2018-12-18T00:05:48.224Z,43.35
2018-12-18T00:06:49.778Z,44.18
2018-12-18T00:07:51.294Z,45.95
2018-12-18T00:08:52.709Z,43.45
2018-12-18T00:09:54.116Z,44.53
2018-12-18T00:10:55.526Z,43.00
2018-12-18T00:11:59.388Z,45.63
2018-12-18T00:13:00.463Z,46.08
2018-12-18T00:14:02.036Z,45.88
2018-12-18T00:15:03.579Z,45.50
2018-12-18T00:16:05.164Z,43.87
2018-12-18T00:17:06.694Z,45.85
2018-12-18T00:18:08.186Z,46.73
2018-12-18T00:19:09.706Z,46.85
2018-12-18T00:20:11.201Z,50.33
2018-12-18T00:21:12.808Z,49.23
2018-12-18T00:22:14.296Z,48.42
2018-12-18T00:23:15.714Z,46.68
2018-12-18T00:24:17.201Z,48.90
2018-12-18T00:25:18.641Z,49.48
2018-12-18T00:26:20.158Z,47.53
2018-12-18T00:27:21.555Z,48.35
2018-12-18T00:28:23.123Z,47.70
2018-12-18T00:29:24.637Z,47.35
2018-12-18T00:30:26.143Z,49.80
2018-12-18T00:31:27.799Z,48.70
2018-12-18T00:32:29.373Z,47.35
2018-12-18T00:33:30.910Z,48.83
2018-12-18T00:34:32.437Z,50.63
2018-12-18T00:35:33.837Z,50.35
2018-12-18T00:36:35.380Z,50.05
2018-12-18T00:37:36.763Z,50.08
2018-12-18T00:38:38.193Z,49.38
2018-12-18T00:39:39.654Z,49.03
2018-12-18T00:40:41.177Z,49.42
2018-12-18T00:41:42.800Z,48.80
2018-12-18T00:42:44.296Z,50.55
2018-12-18T00:43:45.860Z,50.03
2018-12-18T00:44:47.360Z,51.28
2018-12-18T00:45:48.856Z,51.85
2018-12-18T00:46:50.378Z,51.30
2018-12-18T00:47:51.857Z,52.95
2018-12-18T00:48:53.584Z,53.00
2018-12-18T00:49:55.096Z,49.73
2018-12-18T00:50:56.626Z,49.53
2018-12-18T00:51:58.313Z,52.13
2018-12-18T00:52:59.809Z,49.05
2018-12-18T00:54:01.357Z,48.25
2018-12-18T00:55:02.877Z,47.65
2018-12-18T00:56:04.380Z,50.28
2018-12-18T00:57:06.073Z,47.65
2018-12-18T00:58:07.573Z,50.35
2018-12-18T00:59:09.065Z,47.45
2018-12-18T01:00:10.445Z,48.42
2018-12-18T01:01:11.816Z,48.78
2018-12-18T01:02:13.254Z,48.55
2018-12-18T01:03:14.633Z,47.83
2018-12-18T01:04:16.020Z,48.68
2018-12-18T01:05:17.420Z,47.80
2018-12-18T01:06:18.852Z,47.48
2018-12-18T01:07:20.284Z,46.63
2018-12-18T01:08:21.664Z,47.33
2018-12-18T01:09:23.136Z,47.15
2018-12-18T01:10:24.832Z,47.20
2018-12-18T01:11:26.371Z,48.05
2018-12-18T01:12:27.964Z,48.10
2018-12-18T01:13:29.461Z,46.92
2018-12-18T01:14:30.836Z,46.68
2018-12-18T01:15:32.224Z,46.68
2018-12-18T01:16:33.620Z,47.13
2018-12-18T01:17:36.271Z,48.95
2018-12-18T01:18:37.737Z,48.17
2018-12-18T01:19:39.232Z,49.15
2018-12-18T01:20:40.712Z,49.95
2018-12-18T01:21:42.092Z,47.50
2018-12-18T01:22:43.534Z,49.75
2018-12-18T01:23:44.899Z,50.20
2018-12-18T01:24:46.261Z,50.03
2018-12-18T01:25:47.648Z,51.95
2018-12-18T01:26:49.013Z,48.95
2018-12-18T01:27:50.466Z,52.15
2018-12-18T01:28:51.869Z,50.40
2018-12-18T01:29:53.392Z,49.63
2018-12-18T01:30:54.893Z,50.03
2018-12-18T01:31:56.614Z,50.00
2018-12-18T01:32:58.185Z,52.08
2018-12-18T01:33:59.689Z,48.15
2018-12-18T01:35:01.184Z,48.13
2018-12-18T01:36:02.625Z,50.28
2018-12-18T01:37:04.097Z,47.88
2018-12-18T01:38:05.519Z,47.75
2018-12-18T01:39:07.026Z,47.40
2018-12-18T01:40:08.401Z,47.20
2018-12-18T01:41:09.905Z,46.00
2018-12-18T01:42:11.310Z,44.30
2018-12-18T01:43:13.016Z,45.40
2018-12-18T01:45:22.137Z,46.55
2018-12-18T01:46:23.859Z,47.03
2018-12-18T01:47:25.489Z,47.30
2018-12-18T01:48:27.098Z,48.00
2018-12-18T01:49:28.667Z,47.60
2018-12-18T01:50:30.164Z,49.40
2018-12-18T01:51:31.627Z,47.60
2018-12-18T01:52:33.128Z,46.92
2018-12-18T01:53:34.800Z,46.42
2018-12-18T01:54:36.300Z,47.65
2018-12-18T01:55:37.781Z,46.77
2018-12-18T01:56:39.258Z,47.38
2018-12-18T01:57:40.777Z,45.05
2018-12-18T01:58:42.280Z,46.42
2018-12-18T01:59:43.809Z,47.35
2018-12-18T02:00:45.294Z,45.75
2018-12-18T02:01:46.768Z,48.35
2018-12-18T02:02:48.267Z,46.98
2018-12-18T02:03:49.861Z,48.70
2018-12-18T02:04:51.509Z,45.92
2018-12-18T02:05:52.976Z,45.80
2018-12-18T02:06:54.452Z,47.00
2018-12-18T02:07:55.979Z,45.90
2018-12-18T02:08:57.436Z,46.13
2018-12-18T02:09:58.935Z,45.90
2018-12-18T02:11:00.309Z,45.15
2018-12-18T02:12:01.672Z,45.50
2018-12-18T02:13:03.116Z,45.70
2018-12-18T02:14:04.638Z,47.03
2018-12-18T02:15:06.106Z,45.73
2018-12-18T02:16:07.637Z,45.43
2018-12-18T02:17:09.230Z,46.13
2018-12-18T02:18:10.653Z,46.33
2018-12-18T02:19:12.087Z,48.08
2018-12-18T02:20:13.559Z,46.95
2018-12-18T02:21:15.042Z,44.53
2018-12-18T02:22:16.544Z,44.63
2018-12-18T02:23:17.908Z,46.20
2018-12-18T02:24:19.331Z,45.98
2018-12-18T02:25:20.813Z,45.60
2018-12-18T02:26:22.375Z,43.80
2018-12-18T02:27:23.961Z,46.05
2018-12-18T02:28:25.446Z,44.40
2018-12-18T02:29:27.041Z,44.53
2018-12-18T02:30:28.469Z,44.48
2018-12-18T02:31:29.983Z,45.20
2018-12-18T02:32:31.504Z,46.10
2018-12-18T02:33:32.883Z,44.18
2018-12-18T02:34:34.414Z,44.23
2018-12-18T02:35:35.907Z,44.83
2018-12-18T02:36:37.427Z,43.60
2018-12-18T02:37:38.897Z,44.80
2018-12-18T02:38:40.409Z,41.58
2018-12-18T02:39:42.104Z,41.85
2018-12-18T02:40:43.623Z,41.40
2018-12-18T02:41:45.120Z,41.45
2018-12-18T02:42:46.662Z,43.13
2018-12-18T02:43:48.215Z,41.53
2018-12-18T02:44:49.803Z,42.58
2018-12-18T02:45:51.417Z,43.48
2018-12-18T02:46:52.897Z,42.15
2018-12-18T02:47:54.384Z,42.48
2018-12-18T02:48:55.836Z,42.55
2018-12-18T02:49:57.403Z,43.10
2018-12-18T02:50:58.910Z,43.85
2018-12-18T02:52:00.390Z,42.75
2018-12-18T02:53:01.940Z,41.55
2018-12-18T02:54:03.427Z,41.20
2018-12-18T02:55:05.015Z,42.40
2018-12-18T02:56:06.728Z,44.00
2018-12-18T02:57:08.221Z,42.33
2018-12-18T02:58:09.697Z,43.05
2018-12-18T02:59:11.187Z,42.15
2018-12-18T03:00:12.833Z,40.98
2018-12-18T03:01:14.326Z,40.52
2018-12-18T03:02:15.793Z,41.13
2018-12-18T03:03:17.172Z,39.13
2018-12-18T03:04:21.697Z,39.67
2018-12-18T03:05:22.235Z,39.30
2018-12-18T03:06:23.617Z,39.45
2018-12-18T03:07:24.992Z,40.25
2018-12-18T03:08:26.501Z,40.50
2018-12-18T03:09:28.004Z,39.15
2018-12-18T03:10:29.671Z,40.23
2018-12-18T03:11:31.142Z,39.60
2018-12-18T03:12:32.629Z,36.55
2018-12-18T03:13:34.086Z,36.48
2018-12-18T03:14:35.707Z,37.28
2018-12-18T03:15:37.215Z,36.28
2018-12-18T03:16:38.816Z,38.70
2018-12-18T03:17:40.337Z,37.83
2018-12-18T03:18:41.856Z,38.67
2018-12-18T03:19:43.346Z,37.25
2018-12-18T03:20:44.863Z,38.13
2018-12-18T03:21:46.401Z,38.40
2018-12-18T03:22:48.031Z,39.42
2018-12-18T03:23:49.569Z,41.53
2018-12-18T03:24:50.953Z,41.18
2018-12-18T03:25:52.350Z,40.28
2018-12-18T03:26:53.741Z,39.48
2018-12-18T03:27:55.137Z,39.08
2018-12-18T03:28:56.549Z,38.92
2018-12-18T03:29:57.925Z,38.53
2018-12-18T03:30:59.325Z,38.63
2018-12-18T03:32:00.710Z,38.30
2018-12-18T03:33:02.145Z,39.03
2018-12-18T03:34:03.533Z,39.78
2018-12-18T03:35:04.922Z,39.73
2018-12-18T03:36:06.338Z,39.05
2018-12-18T03:37:07.809Z,39.08
2018-12-18T03:38:09.300Z,37.33
2018-12-18T03:39:10.785Z,38.38
2018-12-18T03:40:12.260Z,38.98
2018-12-18T03:41:13.775Z,39.75
2018-12-18T03:42:15.163Z,40.15
2018-12-18T03:43:16.524Z,40.43
2018-12-18T03:44:18.823Z,39.23
2018-12-18T03:45:20.339Z,38.58
2018-12-18T03:46:21.862Z,39.83
2018-12-18T03:47:23.333Z,39.13
2018-12-18T03:48:24.826Z,40.40
2018-12-18T03:49:26.547Z,40.92
2018-12-18T03:50:27.950Z,39.08
2018-12-18T03:51:29.497Z,39.90
2018-12-18T03:52:30.976Z,40.20
2018-12-18T03:53:32.344Z,41.28
2018-12-18T03:54:33.831Z,40.65
2018-12-18T03:55:35.357Z,39.98
2018-12-18T03:56:36.938Z,41.45
2018-12-18T03:57:38.416Z,37.90
2018-12-18T03:58:39.974Z,37.13
2018-12-18T03:59:41.472Z,38.83
2018-12-18T04:00:42.957Z,39.73
2018-12-18T04:01:44.515Z,37.83
2018-12-18T04:02:46.000Z,37.85
2018-12-18T04:03:47.489Z,38.53
2018-12-18T04:04:48.872Z,38.88
2018-12-18T04:05:50.534Z,38.28
2018-12-18T04:06:52.210Z,37.93
2018-12-18T04:07:54.662Z,38.73
2018-12-18T04:08:56.103Z,36.55
2018-12-18T04:09:57.473Z,36.77
2018-12-18T04:10:58.946Z,35.52
2018-12-18T04:12:00.505Z,37.00
2018-12-18T04:13:01.876Z,36.20
2018-12-18T04:14:03.437Z,35.60
2018-12-18T04:15:04.844Z,36.17
2018-12-18T04:16:06.347Z,36.05
2018-12-18T04:17:07.915Z,35.17
2018-12-18T04:18:09.484Z,37.35
2018-12-18T04:19:10.932Z,35.98
2018-12-18T04:20:13.377Z,36.93
2018-12-18T04:21:14.903Z,36.17
2018-12-18T04:22:16.555Z,35.20
2018-12-18T04:23:17.976Z,36.42
2018-12-18T04:24:19.350Z,34.98
2018-12-18T04:25:20.885Z,35.00
2018-12-18T04:26:22.476Z,35.92
2018-12-18T04:27:23.935Z,34.63
2018-12-18T04:28:25.390Z,35.28
2018-12-18T04:29:26.869Z,36.55
2018-12-18T04:30:28.256Z,33.30
2018-12-18T04:31:29.750Z,34.53
2018-12-18T04:32:31.409Z,36.03
2018-12-18T04:33:32.913Z,34.78
2018-12-18T04:34:34.427Z,33.95
2018-12-18T04:35:35.944Z,34.88
2018-12-18T04:36:37.377Z,34.58
2018-12-18T04:37:38.909Z,34.50
2018-12-18T04:38:40.350Z,34.05
2018-12-18T04:39:41.873Z,34.60
2018-12-18T04:40:43.262Z,33.53
2018-12-18T04:41:44.685Z,34.67
2018-12-18T04:42:46.262Z,34.53
2018-12-18T04:43:47.685Z,33.28
2018-12-18T04:44:49.068Z,32.00
2018-12-18T04:45:50.460Z,33.65
2018-12-18T04:46:51.867Z,31.97
2018-12-18T04:47:53.433Z,34.05
2018-12-18T04:48:54.898Z,33.50
2018-12-18T04:49:56.511Z,34.58
2018-12-18T04:50:57.926Z,35.17
2018-12-18T04:51:59.290Z,33.42
2018-12-18T04:53:00.846Z,34.27
2018-12-18T04:54:02.244Z,34.75
2018-12-18T04:55:03.759Z,33.98
2018-12-18T04:56:05.426Z,33.55
2018-12-18T04:57:07.070Z,34.58
2018-12-18T04:58:08.702Z,33.25
2018-12-18T04:59:10.225Z,34.33
2018-12-18T05:00:11.712Z,35.52
2018-12-18T05:01:13.211Z,33.05
2018-12-18T05:02:14.718Z,35.00
2018-12-18T05:03:16.206Z,36.83
2018-12-18T05:04:17.697Z,35.78
2018-12-18T05:05:19.258Z,34.10
2018-12-18T05:06:21.649Z,35.48
2018-12-18T05:07:23.132Z,36.42
2018-12-18T05:08:24.635Z,36.73
2018-12-18T05:09:26.131Z,36.42
2018-12-18T05:10:27.690Z,34.83
2018-12-18T05:11:29.235Z,36.30
2018-12-18T05:12:30.751Z,35.33
2018-12-18T05:13:32.314Z,35.85
2018-12-18T05:14:34.476Z,37.67
2018-12-18T05:15:35.999Z,36.53
2018-12-18T05:16:37.501Z,37.40
2018-12-18T05:17:39.031Z,37.60
2018-12-18T05:18:40.729Z,37.10
2018-12-18T05:19:42.171Z,36.95
2018-12-18T05:20:43.631Z,37.30
2018-12-18T05:21:45.116Z,39.00
2018-12-18T05:22:46.533Z,38.50
2018-12-18T05:23:48.033Z,40.33
2018-12-18T05:24:50.204Z,41.42
2018-12-18T05:25:51.661Z,38.53
2018-12-18T05:26:53.114Z,36.55
2018-12-18T05:27:54.643Z,38.50
2018-12-18T05:28:56.353Z,38.67
2018-12-18T05:29:57.911Z,37.60
2018-12-18T05:30:59.435Z,40.03
2018-12-18T05:32:01.050Z,38.63
2018-12-18T05:33:02.831Z,41.08
2018-12-18T05:34:04.583Z,41.08
2018-12-18T05:35:06.106Z,41.15
2018-12-18T05:36:07.575Z,41.80
2018-12-18T05:37:09.035Z,42.17
2018-12-18T05:38:10.750Z,43.68
2018-12-18T05:39:12.301Z,44.75
2018-12-18T05:40:13.770Z,44.33
2018-12-18T05:41:15.211Z,42.23
2018-12-18T05:42:16.679Z,43.83
2018-12-18T05:43:18.052Z,42.98
2018-12-18T05:44:19.574Z,42.53
2018-12-18T05:45:21.072Z,41.48
2018-12-18T05:46:22.582Z,43.52
2018-12-18T05:47:24.045Z,41.95
2018-12-18T05:48:25.460Z,40.73
2018-12-18T05:49:26.961Z,41.13
2018-12-18T05:50:28.429Z,41.77
2018-12-18T05:51:29.853Z,40.63
2018-12-18T05:52:32.433Z,39.75
2018-12-18T05:53:33.977Z,38.13
2018-12-18T05:54:35.613Z,41.25
2018-12-18T05:55:37.184Z,40.15
2018-12-18T05:56:38.898Z,42.75
2018-12-18T05:57:40.453Z,41.18
2018-12-18T05:58:42.009Z,39.05
2018-12-18T05:59:43.623Z,39.30
2018-12-18T06:00:45.248Z,40.00
2018-12-18T06:01:46.781Z,38.95
2018-12-18T06:02:48.406Z,39.70
2018-12-18T06:03:49.957Z,39.42
2018-12-18T06:04:51.648Z,39.42
2018-12-18T06:05:53.172Z,40.80
2018-12-18T06:06:54.875Z,38.10
2018-12-18T06:07:56.314Z,37.73
2018-12-18T06:08:57.851Z,39.25
2018-12-18T06:09:59.515Z,40.28
2018-12-18T06:11:01.019Z,38.67
2018-12-18T06:12:02.596Z,40.35
2018-12-18T06:13:04.081Z,38.15
2018-12-18T06:14:05.552Z,38.60
2018-12-18T06:15:07.077Z,40.05
2018-12-18T06:16:08.550Z,42.40
2018-12-18T06:17:10.295Z,41.42
2018-12-18T06:18:11.783Z,43.25
2018-12-18T06:19:13.506Z,41.68
2018-12-18T06:20:15.003Z,43.35
2018-12-18T06:21:16.479Z,44.00
2018-12-18T06:22:17.906Z,45.25
2018-12-18T06:23:19.329Z,45.15
2018-12-18T06:24:20.849Z,44.77
2018-12-18T06:25:22.477Z,45.33
2018-12-18T06:26:24.049Z,43.83
2018-12-18T06:27:25.600Z,44.88
2018-12-18T06:28:27.294Z,44.18
2018-12-18T06:29:28.751Z,46.08
2018-12-18T06:30:30.439Z,46.88
2018-12-18T06:31:31.919Z,46.48
2018-12-18T06:32:33.393Z,46.88
2018-12-18T06:33:34.998Z,46.33
2018-12-18T06:34:36.824Z,46.70
2018-12-18T06:35:38.539Z,46.00
2018-12-18T06:36:40.048Z,46.10
2018-12-18T06:37:41.557Z,45.45
2018-12-18T06:38:43.253Z,48.90
2018-12-18T06:39:44.783Z,45.55
2018-12-18T06:40:46.303Z,46.08
2018-12-18T06:41:47.696Z,46.25
2018-12-18T06:42:49.165Z,46.92
2018-12-18T06:43:50.568Z,45.83
2018-12-18T06:44:52.060Z,44.67
2018-12-18T06:45:53.640Z,43.68
2018-12-18T06:46:55.045Z,42.62
2018-12-18T06:47:56.547Z,44.30
2018-12-18T06:48:58.061Z,44.05
2018-12-18T06:49:59.478Z,44.42
2018-12-18T06:51:01.029Z,46.75
2018-12-18T06:52:02.457Z,47.73
2018-12-18T06:53:03.983Z,48.60
2018-12-18T06:54:05.520Z,46.92
2018-12-18T06:55:07.041Z,47.75
2018-12-18T06:56:08.687Z,46.25
2018-12-18T06:57:11.281Z,45.80
2018-12-18T06:58:12.969Z,46.33
2018-12-18T06:59:14.675Z,45.30
2018-12-18T07:00:16.184Z,45.83
2018-12-18T07:01:17.643Z,46.18
2018-12-18T07:02:19.112Z,46.88
2018-12-18T07:03:20.633Z,47.08
2018-12-18T07:04:22.066Z,47.15
2018-12-18T07:05:23.516Z,47.38
2018-12-18T07:06:24.925Z,48.17
2018-12-18T07:07:26.338Z,49.53
2018-12-18T07:08:27.892Z,46.68
2018-12-18T07:09:29.581Z,50.08
2018-12-18T07:10:31.081Z,49.80
2018-12-18T07:11:32.606Z,49.45
2018-12-18T07:12:34.347Z,51.13
2018-12-18T07:13:35.923Z,52.25
2018-12-18T07:14:37.460Z,53.78
2018-12-18T07:15:39.047Z,56.63
2018-12-18T07:16:40.647Z,55.48
2018-12-18T07:17:42.267Z,55.58
2018-12-18T07:18:43.835Z,54.38
2018-12-18T07:19:45.390Z,53.78
2018-12-18T07:20:46.887Z,51.70
2018-12-18T07:21:48.559Z,48.38
2018-12-18T07:22:50.076Z,45.58
2018-12-18T07:23:51.804Z,46.35
2018-12-18T07:24:53.225Z,46.15
2018-12-18T07:25:54.696Z,44.55
2018-12-18T07:26:56.167Z,46.48
2018-12-18T07:27:57.688Z,45.90
2018-12-18T07:28:59.252Z,46.35
2018-12-18T07:30:00.684Z,46.45
2018-12-18T07:31:02.117Z,44.85
2018-12-18T07:32:03.619Z,47.33
2018-12-18T07:33:05.009Z,46.63
2018-12-18T07:34:06.426Z,46.53
2018-12-18T07:35:08.066Z,47.17
2018-12-18T07:36:09.697Z,47.65
2018-12-18T07:37:11.491Z,48.10
2018-12-18T07:38:13.163Z,46.33
2018-12-18T07:39:14.626Z,44.55
2018-12-18T07:40:16.142Z,45.15
2018-12-18T07:41:17.608Z,47.95
2018-12-18T07:42:18.995Z,46.13
2018-12-18T07:43:20.472Z,48.92
2018-12-18T07:44:21.917Z,47.98
2018-12-18T07:45:23.337Z,50.78
2018-12-18T07:46:24.811Z,50.17
2018-12-18T07:47:26.205Z,47.73
2018-12-18T07:48:27.605Z,50.63
2018-12-18T07:49:29.033Z,51.48
2018-12-18T07:50:30.438Z,51.05
2018-12-18T07:51:31.977Z,50.95
2018-12-18T07:52:33.434Z,51.85
2018-12-18T07:53:35.458Z,50.35
2018-12-18T07:54:37.032Z,49.13
2018-12-18T07:55:38.622Z,51.08
2018-12-18T07:56:40.192Z,49.23
2018-12-18T07:57:41.678Z,50.70
2018-12-18T07:58:43.209Z,52.33
2018-12-18T07:59:44.762Z,52.70
2018-12-18T08:00:46.338Z,53.10
2018-12-18T08:01:47.897Z,50.30
2018-12-18T08:02:49.669Z,52.27
2018-12-18T08:03:51.163Z,54.33
2018-12-18T08:04:52.668Z,55.88
2018-12-18T08:05:54.189Z,56.60
2018-12-18T08:06:55.771Z,60.38
2018-12-18T08:07:57.233Z,61.68
2018-12-18T08:08:58.688Z,62.67
2018-12-18T08:10:00.190Z,55.40
2018-12-18T08:11:01.671Z,54.05
2018-12-18T08:12:03.144Z,56.77
2018-12-18T08:13:04.605Z,50.63
2018-12-18T08:14:06.269Z,53.58
2018-12-18T08:15:07.756Z,53.98
2018-12-18T08:16:09.516Z,54.33
2018-12-18T08:17:11.208Z,53.33
2018-12-18T08:18:12.604Z,55.52
2018-12-18T08:19:14.088Z,54.05
2018-12-18T08:20:15.562Z,53.87
2018-12-18T08:21:17.064Z,53.70
2018-12-18T08:22:18.587Z,55.30
2018-12-18T08:23:19.976Z,52.30
2018-12-18T08:24:21.828Z,50.55
2018-12-18T08:25:23.351Z,54.15
2018-12-18T08:26:24.838Z,55.48
2018-12-18T08:27:26.294Z,54.15
2018-12-18T08:28:27.760Z,51.77
2018-12-18T08:29:29.196Z,50.35
2018-12-18T08:30:30.621Z,51.02
2018-12-18T08:31:32.133Z,50.88
2018-12-18T08:32:33.553Z,52.03
2018-12-18T08:33:34.957Z,55.23
2018-12-18T08:34:36.345Z,54.83
2018-12-18T08:35:37.814Z,51.02
2018-12-18T08:36:39.361Z,51.92
2018-12-18T08:37:40.751Z,49.03
2018-12-18T08:38:42.181Z,48.10
2018-12-18T08:39:43.778Z,52.73
2018-12-18T08:40:45.167Z,52.78
2018-12-18T08:41:46.638Z,51.58
2018-12-18T08:42:48.086Z,50.25
2018-12-18T08:43:49.509Z,51.77
2018-12-18T08:44:50.949Z,53.38
2018-12-18T08:45:52.421Z,50.80
2018-12-18T08:46:53.884Z,50.60
2018-12-18T08:47:55.287Z,53.70
2018-12-18T08:48:56.673Z,51.63
2018-12-18T08:49:58.061Z,52.00
2018-12-18T08:50:59.589Z,51.35
2018-12-18T08:52:01.033Z,50.80
2018-12-18T08:53:02.515Z,49.85
2018-12-18T08:54:03.997Z,48.98
2018-12-18T08:55:05.509Z,50.92
2018-12-18T08:56:07.027Z,50.00
2018-12-18T08:57:08.577Z,50.78
2018-12-18T08:58:09.972Z,52.35
2018-12-18T08:59:11.457Z,52.38
2018-12-18T09:00:12.885Z,52.03
2018-12-18T09:01:14.288Z,54.08
2018-12-18T09:02:15.931Z,52.27
2018-12-18T09:03:17.354Z,51.42
2018-12-18T09:04:18.736Z,52.00
2018-12-18T09:05:20.197Z,55.05
2018-12-18T09:06:21.782Z,53.17
2018-12-18T09:07:23.488Z,54.63
2018-12-18T09:08:25.104Z,53.75
2018-12-18T09:09:26.616Z,54.98
2018-12-18T09:10:28.119Z,52.48
2018-12-18T09:11:29.693Z,53.50
2018-12-18T09:12:31.233Z,50.60
2018-12-18T09:13:33.439Z,49.13
2018-12-18T09:14:34.857Z,47.05
2018-12-18T09:15:36.581Z,49.63
2018-12-18T09:16:38.096Z,47.55
2018-12-18T09:17:39.914Z,46.77
2018-12-18T09:18:41.505Z,50.05
2018-12-18T09:19:43.068Z,45.55
2018-12-18T09:20:44.458Z,50.20
2018-12-18T09:21:45.884Z,51.20
2018-12-18T09:22:47.320Z,50.92
2018-12-18T09:23:48.745Z,50.55
2018-12-18T09:24:50.265Z,50.00
2018-12-18T09:25:51.818Z,48.60
2018-12-18T09:26:53.439Z,49.23
2018-12-18T09:27:55.155Z,48.52
2018-12-18T09:28:56.661Z,48.35
2018-12-18T09:29:58.217Z,49.00
2018-12-18T09:30:59.708Z,48.98
2018-12-18T09:32:01.219Z,49.60
2018-12-18T09:33:02.885Z,49.15
2018-12-18T09:34:04.439Z,48.25
2018-12-18T09:35:05.988Z,45.67
2018-12-18T09:36:07.507Z,48.38
2018-12-18T09:37:08.899Z,46.50
2018-12-18T09:38:10.646Z,48.10
2018-12-18T09:39:12.309Z,49.80
2018-12-18T09:40:13.825Z,49.95
2018-12-18T09:41:15.320Z,47.43
2018-12-18T09:42:16.969Z,49.85
2018-12-18T09:43:18.526Z,48.60
2018-12-18T09:44:20.078Z,52.27
2018-12-18T09:45:21.671Z,48.68
2018-12-18T09:46:23.192Z,48.23
2018-12-18T09:47:24.745Z,50.03
2018-12-18T09:48:26.228Z,45.63
2018-12-18T09:49:27.700Z,47.27
2018-12-18T09:50:29.100Z,49.18
2018-12-18T09:51:30.511Z,48.98
2018-12-18T09:52:31.937Z,49.08
2018-12-18T09:53:33.469Z,48.08
2018-12-18T09:54:34.852Z,50.83
2018-12-18T09:55:36.286Z,52.65
2018-12-18T09:56:37.690Z,48.65
2018-12-18T09:57:39.141Z,51.65
2018-12-18T09:58:40.662Z,49.13
2018-12-18T09:59:42.041Z,47.03
2018-12-18T10:00:43.464Z,47.88
2018-12-18T10:01:44.885Z,46.25
2018-12-18T10:02:46.430Z,45.45
2018-12-18T10:03:48.123Z,45.10
2018-12-18T10:04:49.742Z,45.30
2018-12-18T10:05:56.305Z,43.95
2018-12-18T10:06:55.255Z,43.80
2018-12-18T10:07:56.898Z,44.63
2018-12-18T10:08:58.482Z,44.35
2018-12-18T10:10:00.014Z,46.10
2018-12-18T10:11:01.671Z,43.42
2018-12-18T10:12:03.111Z,43.05
2018-12-18T10:13:04.574Z,45.20
2018-12-18T10:14:06.140Z,45.28
2018-12-18T10:15:07.662Z,44.33
2018-12-18T10:16:09.052Z,44.13
2018-12-18T10:17:10.514Z,41.92
2018-12-18T10:18:11.938Z,43.10
2018-12-18T10:19:13.466Z,45.60
2018-12-18T10:20:14.917Z,44.70
2018-12-18T10:21:16.338Z,43.33
2018-12-18T10:22:17.762Z,44.13
2018-12-18T10:23:19.202Z,44.63
2018-12-18T10:24:20.769Z,44.83
2018-12-18T10:25:22.280Z,46.25
2018-12-18T10:26:23.815Z,45.75
2018-12-18T10:27:25.495Z,46.73
2018-12-18T10:28:27.029Z,44.88
2018-12-18T10:29:28.782Z,45.73
2018-12-18T10:30:30.276Z,44.73
2018-12-18T10:31:31.790Z,44.40
2018-12-18T10:32:33.312Z,44.27
2018-12-18T10:33:35.012Z,45.05
2018-12-18T10:34:36.713Z,44.63
2018-12-18T10:35:38.324Z,46.58
2018-12-18T10:36:39.711Z,45.33
2018-12-18T10:37:41.132Z,43.90
2018-12-18T10:38:42.545Z,45.55
2018-12-18T10:39:44.030Z,45.05
2018-12-18T10:40:45.426Z,45.80
2018-12-18T10:41:46.817Z,45.03
2018-12-18T10:42:48.246Z,45.23
2018-12-18T10:43:49.726Z,46.28
2018-12-18T10:44:51.173Z,46.53
2018-12-18T10:45:53.721Z,48.30
2018-12-18T10:46:55.425Z,47.40
2018-12-18T10:47:56.954Z,44.42
2018-12-18T10:48:58.552Z,45.75
2018-12-18T10:50:00.293Z,47.25
2018-12-18T10:51:01.814Z,45.15
2018-12-18T10:52:03.516Z,47.80
2018-12-18T10:53:05.069Z,47.65
2018-12-18T10:54:07.883Z,49.55
2018-12-18T10:55:09.379Z,48.45
2018-12-18T10:56:10.822Z,47.58
2018-12-18T10:57:12.338Z,53.08
2018-12-18T10:58:13.763Z,52.78
2018-12-18T10:59:15.199Z,50.33
2018-12-18T11:00:16.647Z,45.95
2018-12-18T11:01:18.072Z,44.98
2018-12-18T11:02:19.520Z,43.58
2018-12-18T11:03:20.966Z,41.68
2018-12-18T11:04:22.448Z,43.83
2018-12-18T11:05:23.914Z,42.38
2018-12-18T11:06:25.386Z,41.85
2018-12-18T11:07:26.830Z,44.15
2018-12-18T11:08:28.430Z,44.55
2018-12-18T11:09:29.958Z,43.90
2018-12-18T11:10:31.495Z,44.65
2018-12-18T11:11:33.031Z,46.42
2018-12-18T11:12:34.680Z,45.15
2018-12-18T11:13:36.275Z,45.25
2018-12-18T11:14:37.839Z,44.40
2018-12-18T11:15:39.458Z,45.12
2018-12-18T11:16:41.004Z,46.00
2018-12-18T11:17:42.630Z,44.67
2018-12-18T11:18:44.199Z,44.88
2018-12-18T11:19:45.818Z,47.08
2018-12-18T11:20:47.456Z,46.73
2018-12-18T11:21:49.136Z,48.87
2018-12-18T11:22:50.703Z,46.20
2018-12-18T11:26:25.467Z,40.45
2018-12-18T11:27:26.950Z,44.53
2018-12-18T11:28:28.409Z,45.90
2018-12-18T11:29:30.007Z,46.42
2018-12-18T11:30:32.056Z,46.08
2018-12-18T11:31:33.618Z,46.00
2018-12-18T11:32:35.135Z,45.43
2018-12-18T11:33:36.677Z,48.30
2018-12-18T11:34:38.209Z,48.68
2018-12-18T11:35:40.390Z,47.88
2018-12-18T11:36:41.961Z,47.60
2018-12-18T11:37:43.496Z,49.05
2018-12-18T11:38:45.163Z,48.00
2018-12-18T11:39:46.738Z,48.48
2018-12-18T11:40:48.506Z,47.20
2018-12-18T11:41:50.004Z,48.60
2018-12-18T11:42:51.578Z,48.63
2018-12-18T11:43:53.108Z,50.65
2018-12-18T11:44:54.652Z,49.30
2018-12-18T11:45:56.127Z,47.45
2018-12-18T11:46:57.855Z,47.75
2018-12-18T11:47:59.615Z,48.05
2018-12-18T11:49:01.233Z,49.55
2018-12-18T11:50:02.766Z,48.73
2018-12-18T11:51:04.173Z,47.33
2018-12-18T11:52:05.655Z,45.33
2018-12-18T11:53:07.210Z,47.20
2018-12-18T11:54:08.729Z,45.38
2018-12-18T11:55:10.365Z,48.17
2018-12-18T11:56:11.903Z,47.23
2018-12-18T11:57:13.417Z,48.63
2018-12-18T11:58:15.072Z,49.77
2018-12-18T11:59:16.619Z,48.28
2018-12-18T12:00:18.200Z,48.65
2018-12-18T12:01:19.706Z,46.13
2018-12-18T12:02:21.211Z,50.58
2018-12-18T12:03:22.872Z,46.68
2018-12-18T12:04:24.387Z,47.62
2018-12-18T12:05:25.882Z,46.85
2018-12-18T12:06:27.521Z,47.73
2018-12-18T12:07:29.010Z,47.88
2018-12-18T12:08:30.537Z,47.55
2018-12-18T12:09:32.022Z,50.52
2018-12-18T12:11:53.170Z,47.25
2018-12-18T12:12:54.590Z,48.95
2018-12-18T12:13:56.110Z,49.30
2018-12-18T12:14:57.699Z,47.17
2018-12-18T12:15:59.385Z,49.05
2018-12-18T12:17:01.613Z,48.38
2018-12-18T12:18:03.372Z,47.95
2018-12-18T12:19:04.913Z,47.93
2018-12-18T12:20:07.546Z,48.83
2018-12-18T12:21:09.031Z,50.05
2018-12-18T12:22:10.519Z,50.58
2018-12-18T12:23:12.029Z,49.83
2018-12-18T12:24:13.541Z,51.55
2018-12-18T12:25:14.997Z,52.20
2018-12-18T12:26:16.441Z,55.08
2018-12-18T12:27:17.953Z,57.88
2018-12-18T12:28:19.410Z,55.95
2018-12-18T12:29:20.958Z,58.87
2018-12-18T12:30:22.475Z,53.55
2018-12-18T12:31:23.961Z,52.78
2018-12-18T12:32:25.601Z,53.58
2018-12-18T12:33:27.164Z,54.67
2018-12-18T12:34:29.763Z,55.90
2018-12-18T12:35:31.287Z,52.85
2018-12-18T12:36:32.832Z,51.20
2018-12-18T12:37:34.453Z,54.45
2018-12-18T12:38:35.984Z,53.52
2018-12-18T12:39:37.519Z,55.70
2018-12-18T12:40:38.985Z,52.20
2018-12-18T12:41:40.713Z,54.58
2018-12-18T12:42:42.252Z,53.28
2018-12-18T12:43:43.792Z,54.08
2018-12-18T12:44:45.391Z,52.40
2018-12-18T12:45:46.933Z,55.45
2018-12-18T12:46:48.615Z,55.00
2018-12-18T12:47:50.200Z,56.15
2018-12-18T12:48:51.745Z,58.42
2018-12-18T12:49:53.293Z,57.03
2018-12-18T12:50:54.951Z,54.05
2018-12-18T12:51:56.395Z,56.18
2018-12-18T12:52:57.884Z,55.48
2018-12-18T12:53:59.417Z,52.35
2018-12-18T12:55:02.026Z,54.05
2018-12-18T12:56:03.698Z,50.88
2018-12-18T12:57:05.377Z,52.48
2018-12-18T12:58:06.930Z,52.35
2018-12-18T12:59:08.510Z,51.28
2018-12-18T13:00:10.100Z,51.65
2018-12-18T13:01:11.690Z,52.50
2018-12-18T13:02:13.171Z,53.60
2018-12-18T13:03:14.595Z,53.75
2018-12-18T13:04:16.064Z,52.58
2018-12-18T13:05:17.558Z,50.65
2018-12-18T13:06:18.970Z,50.80
2018-12-18T13:07:20.752Z,48.92
2018-12-18T13:08:22.235Z,51.15
2018-12-18T13:09:23.702Z,50.25
2018-12-18T13:10:25.203Z,52.43
2018-12-18T13:11:26.669Z,50.20
2018-12-18T13:12:28.190Z,49.53
2018-12-18T13:13:29.645Z,49.95
2018-12-18T13:14:31.108Z,49.65
2018-12-18T13:15:32.618Z,48.68
2018-12-18T13:16:34.109Z,48.90
2018-12-18T13:17:35.622Z,52.40